sensor_id;sensor_type;location;lat;lon;timestamp;P1;durP1;ratioP1;P2;durP2;ratioP2
70812;SDS011;62099;52.170;5.386;2022-08-19T00:01:34;9.20;;;4.53;;
70812;SDS011;62099;52.170;5.386;2022-08-19T00:04:05;8.00;;;4.82;;
70812;SDS011;62099;52.170;5.386;2022-08-19T00:06:34;8.90;;;4.80;;
70812;SDS011;62099;52.170;5.386;2022-08-19T00:09:04;8.90;;;5.25;;
70812;SDS011;62099;52.170;5.386;2022-08-19T00:11:33;8.20;;;4.78;;
70812;SDS011;62099;52.170;5.386;2022-08-19T00:14:03;9.05;;;4.93;;
70812;SDS011;62099;52.170;5.386;2022-08-19T00:16:32;11.82;;;5.40;;
70812;SDS011;62099;52.170;5.386;2022-08-19T00:18:59;9.60;;;5.22;;
70812;SDS011;62099;52.170;5.386;2022-08-19T00:21:26;11.07;;;4.70;;
70812;SDS011;62099;52.170;5.386;2022-08-19T00:23:53;10.88;;;5.80;;
70812;SDS011;62099;52.170;5.386;2022-08-19T00:26:24;12.07;;;6.60;;
70812;SDS011;62099;52.170;5.386;2022-08-19T00:28:51;9.75;;;5.15;;
70812;SDS011;62099;52.170;5.386;2022-08-19T00:31:18;9.73;;;5.07;;
70812;SDS011;62099;52.170;5.386;2022-08-19T00:33:44;11.27;;;5.85;;
70812;SDS011;62099;52.170;5.386;2022-08-19T00:36:11;9.20;;;5.60;;
70812;SDS011;62099;52.170;5.386;2022-08-19T00:38:38;9.18;;;5.40;;
70812;SDS011;62099;52.170;5.386;2022-08-19T00:41:10;8.55;;;4.97;;
70812;SDS011;62099;52.170;5.386;2022-08-19T00:43:38;8.45;;;5.03;;
70812;SDS011;62099;52.170;5.386;2022-08-19T00:46:06;8.68;;;4.95;;
70812;SDS011;62099;52.170;5.386;2022-08-19T00:48:33;10.05;;;5.00;;
70812;SDS011;62099;52.170;5.386;2022-08-19T00:51:03;9.43;;;4.90;;
70812;SDS011;62099;52.170;5.386;2022-08-19T00:53:31;8.55;;;4.55;;
70812;SDS011;62099;52.170;5.386;2022-08-19T00:55:59;11.60;;;5.47;;
70812;SDS011;62099;52.170;5.386;2022-08-19T00:58:30;8.70;;;4.90;;
70812;SDS011;62099;52.170;5.386;2022-08-19T01:00:59;9.95;;;5.00;;
70812;SDS011;62099;52.170;5.386;2022-08-19T01:03:27;11.50;;;4.80;;
70812;SDS011;62099;52.170;5.386;2022-08-19T01:06:14;10.60;;;5.90;;
70812;SDS011;62099;52.170;5.386;2022-08-19T01:08:45;10.45;;;5.57;;
70812;SDS011;62099;52.170;5.386;2022-08-19T01:11:15;9.40;;;4.90;;
70812;SDS011;62099;52.170;5.386;2022-08-19T01:13:42;10.27;;;5.28;;
70812;SDS011;62099;52.170;5.386;2022-08-19T01:16:16;11.02;;;5.90;;
70812;SDS011;62099;52.170;5.386;2022-08-19T01:18:45;12.15;;;5.70;;
70812;SDS011;62099;52.170;5.386;2022-08-19T01:21:18;11.15;;;5.60;;
70812;SDS011;62099;52.170;5.386;2022-08-19T01:23:47;10.40;;;5.40;;
70812;SDS011;62099;52.170;5.386;2022-08-19T01:26:17;10.13;;;6.20;;
70812;SDS011;62099;52.170;5.386;2022-08-19T01:28:47;11.70;;;5.63;;
70812;SDS011;62099;52.170;5.386;2022-08-19T01:31:19;10.73;;;5.82;;
70812;SDS011;62099;52.170;5.386;2022-08-19T01:33:52;11.90;;;6.45;;
70812;SDS011;62099;52.170;5.386;2022-08-19T01:38:56;9.90;;;5.45;;
70812;SDS011;62099;52.170;5.386;2022-08-19T01:41:24;11.05;;;5.90;;
70812;SDS011;62099;52.170;5.386;2022-08-19T01:43:52;11.55;;;6.65;;
70812;SDS011;62099;52.170;5.386;2022-08-19T01:46:40;12.25;;;6.68;;
70812;SDS011;62099;52.170;5.386;2022-08-19T01:49:08;12.57;;;6.68;;
70812;SDS011;62099;52.170;5.386;2022-08-19T01:51:36;13.27;;;7.82;;
70812;SDS011;62099;52.170;5.386;2022-08-19T01:54:05;14.63;;;7.45;;
70812;SDS011;62099;52.170;5.386;2022-08-19T01:56:33;13.52;;;7.95;;
70812;SDS011;62099;52.170;5.386;2022-08-19T02:01:28;13.57;;;7.25;;
70812;SDS011;62099;52.170;5.386;2022-08-19T02:03:58;11.20;;;6.80;;
70812;SDS011;62099;52.170;5.386;2022-08-19T02:06:27;14.10;;;7.38;;
70812;SDS011;62099;52.170;5.386;2022-08-19T02:08:54;15.32;;;7.05;;
70812;SDS011;62099;52.170;5.386;2022-08-19T02:11:32;12.68;;;6.80;;
70812;SDS011;62099;52.170;5.386;2022-08-19T02:14:00;12.52;;;6.65;;
70812;SDS011;62099;52.170;5.386;2022-08-19T02:16:29;11.65;;;6.55;;
70812;SDS011;62099;52.170;5.386;2022-08-19T02:18:56;12.25;;;6.32;;
70812;SDS011;62099;52.170;5.386;2022-08-19T02:21:26;13.80;;;6.93;;
70812;SDS011;62099;52.170;5.386;2022-08-19T02:23:54;12.95;;;7.03;;
70812;SDS011;62099;52.170;5.386;2022-08-19T02:26:21;12.13;;;6.85;;
70812;SDS011;62099;52.170;5.386;2022-08-19T02:28:48;12.73;;;7.22;;
70812;SDS011;62099;52.170;5.386;2022-08-19T02:31:17;13.02;;;7.65;;
70812;SDS011;62099;52.170;5.386;2022-08-19T02:33:45;14.23;;;7.90;;
70812;SDS011;62099;52.170;5.386;2022-08-19T02:36:13;12.25;;;6.78;;
70812;SDS011;62099;52.170;5.386;2022-08-19T02:38:41;13.20;;;6.35;;
70812;SDS011;62099;52.170;5.386;2022-08-19T02:41:21;12.10;;;7.00;;
70812;SDS011;62099;52.170;5.386;2022-08-19T02:43:52;12.10;;;6.85;;
70812;SDS011;62099;52.170;5.386;2022-08-19T02:46:44;12.77;;;7.78;;
70812;SDS011;62099;52.170;5.386;2022-08-19T02:49:12;13.10;;;8.00;;
70812;SDS011;62099;52.170;5.386;2022-08-19T02:51:42;13.15;;;7.80;;
70812;SDS011;62099;52.170;5.386;2022-08-19T02:54:11;14.35;;;8.50;;
70812;SDS011;62099;52.170;5.386;2022-08-19T02:56:39;15.20;;;7.93;;
70812;SDS011;62099;52.170;5.386;2022-08-19T02:59:07;15.35;;;9.43;;
70812;SDS011;62099;52.170;5.386;2022-08-19T03:01:37;13.55;;;8.80;;
70812;SDS011;62099;52.170;5.386;2022-08-19T03:04:07;16.33;;;9.63;;
70812;SDS011;62099;52.170;5.386;2022-08-19T03:06:37;17.98;;;9.25;;
70812;SDS011;62099;52.170;5.386;2022-08-19T03:09:05;12.73;;;7.57;;
70812;SDS011;62099;52.170;5.386;2022-08-19T03:11:32;14.38;;;8.70;;
70812;SDS011;62099;52.170;5.386;2022-08-19T03:14:00;12.43;;;8.75;;
70812;SDS011;62099;52.170;5.386;2022-08-19T03:16:28;14.02;;;8.88;;
70812;SDS011;62099;52.170;5.386;2022-08-19T03:18:59;14.65;;;8.82;;
70812;SDS011;62099;52.170;5.386;2022-08-19T03:21:27;16.65;;;9.65;;
70812;SDS011;62099;52.170;5.386;2022-08-19T03:23:58;17.77;;;10.57;;
70812;SDS011;62099;52.170;5.386;2022-08-19T03:26:27;16.88;;;9.55;;
70812;SDS011;62099;52.170;5.386;2022-08-19T03:28:55;15.82;;;10.30;;
70812;SDS011;62099;52.170;5.386;2022-08-19T03:31:24;16.92;;;10.23;;
70812;SDS011;62099;52.170;5.386;2022-08-19T03:34:14;17.50;;;9.43;;
70812;SDS011;62099;52.170;5.386;2022-08-19T03:36:44;14.15;;;8.57;;
70812;SDS011;62099;52.170;5.386;2022-08-19T03:39:11;15.80;;;8.82;;
70812;SDS011;62099;52.170;5.386;2022-08-19T03:41:40;15.52;;;7.93;;
70812;SDS011;62099;52.170;5.386;2022-08-19T03:44:15;15.10;;;8.93;;
70812;SDS011;62099;52.170;5.386;2022-08-19T03:46:49;17.50;;;8.75;;
70812;SDS011;62099;52.170;5.386;2022-08-19T03:49:18;15.77;;;8.93;;
70812;SDS011;62099;52.170;5.386;2022-08-19T03:51:47;15.68;;;9.90;;
70812;SDS011;62099;52.170;5.386;2022-08-19T03:54:15;17.27;;;9.90;;
70812;SDS011;62099;52.170;5.386;2022-08-19T03:56:45;18.60;;;9.63;;
70812;SDS011;62099;52.170;5.386;2022-08-19T03:59:15;17.45;;;10.18;;
70812;SDS011;62099;52.170;5.386;2022-08-19T04:01:43;16.50;;;10.82;;
70812;SDS011;62099;52.170;5.386;2022-08-19T04:04:11;19.60;;;10.80;;
70812;SDS011;62099;52.170;5.386;2022-08-19T04:06:38;17.52;;;10.80;;
70812;SDS011;62099;52.170;5.386;2022-08-19T04:09:06;19.05;;;10.93;;
70812;SDS011;62099;52.170;5.386;2022-08-19T04:11:36;22.10;;;12.20;;
70812;SDS011;62099;52.170;5.386;2022-08-19T04:14:11;22.25;;;12.75;;
70812;SDS011;62099;52.170;5.386;2022-08-19T04:16:40;23.23;;;12.93;;
70812;SDS011;62099;52.170;5.386;2022-08-19T04:19:10;20.85;;;12.07;;
70812;SDS011;62099;52.170;5.386;2022-08-19T04:21:37;19.48;;;11.43;;
70812;SDS011;62099;52.170;5.386;2022-08-19T04:24:04;20.35;;;12.20;;
70812;SDS011;62099;52.170;5.386;2022-08-19T04:26:33;20.02;;;12.18;;
70812;SDS011;62099;52.170;5.386;2022-08-19T04:29:03;19.92;;;11.45;;
70812;SDS011;62099;52.170;5.386;2022-08-19T04:31:37;17.35;;;10.82;;
70812;SDS011;62099;52.170;5.386;2022-08-19T04:34:05;17.77;;;11.07;;
70812;SDS011;62099;52.170;5.386;2022-08-19T04:36:34;21.17;;;11.45;;
70812;SDS011;62099;52.170;5.386;2022-08-19T04:39:04;19.60;;;11.32;;
70812;SDS011;62099;52.170;5.386;2022-08-19T04:41:33;20.30;;;11.45;;
70812;SDS011;62099;52.170;5.386;2022-08-19T04:44:18;20.63;;;11.32;;
70812;SDS011;62099;52.170;5.386;2022-08-19T04:49:17;19.45;;;11.23;;
70812;SDS011;62099;52.170;5.386;2022-08-19T04:51:48;21.27;;;10.68;;
70812;SDS011;62099;52.170;5.386;2022-08-19T04:54:16;17.77;;;10.18;;
70812;SDS011;62099;52.170;5.386;2022-08-19T04:57:04;19.02;;;10.70;;
70812;SDS011;62099;52.170;5.386;2022-08-19T04:59:34;18.80;;;10.70;;
70812;SDS011;62099;52.170;5.386;2022-08-19T05:02:02;19.73;;;11.30;;
70812;SDS011;62099;52.170;5.386;2022-08-19T05:04:30;21.88;;;11.75;;
70812;SDS011;62099;52.170;5.386;2022-08-19T05:06:59;20.27;;;11.45;;
70812;SDS011;62099;52.170;5.386;2022-08-19T05:09:29;20.00;;;12.32;;
70812;SDS011;62099;52.170;5.386;2022-08-19T05:12:16;20.13;;;11.82;;
70812;SDS011;62099;52.170;5.386;2022-08-19T05:14:44;24.90;;;12.25;;
70812;SDS011;62099;52.170;5.386;2022-08-19T05:17:13;23.67;;;13.30;;
70812;SDS011;62099;52.170;5.386;2022-08-19T05:20:00;24.00;;;12.93;;
70812;SDS011;62099;52.170;5.386;2022-08-19T05:25:17;24.90;;;13.57;;
70812;SDS011;62099;52.170;5.386;2022-08-19T05:27:46;25.45;;;13.68;;
70812;SDS011;62099;52.170;5.386;2022-08-19T05:30:14;28.77;;;14.60;;
70812;SDS011;62099;52.170;5.386;2022-08-19T05:32:42;31.98;;;15.68;;
70812;SDS011;62099;52.170;5.386;2022-08-19T05:35:09;34.67;;;16.55;;
70812;SDS011;62099;52.170;5.386;2022-08-19T05:37:37;38.92;;;18.38;;
70812;SDS011;62099;52.170;5.386;2022-08-19T05:40:06;41.45;;;21.00;;
70812;SDS011;62099;52.170;5.386;2022-08-19T05:42:34;43.00;;;21.25;;
70812;SDS011;62099;52.170;5.386;2022-08-19T05:47:28;45.60;;;22.13;;
70812;SDS011;62099;52.170;5.386;2022-08-19T05:49:55;47.35;;;23.13;;
70812;SDS011;62099;52.170;5.386;2022-08-19T05:54:51;47.33;;;22.88;;
70812;SDS011;62099;52.170;5.386;2022-08-19T05:57:21;49.85;;;25.25;;
70812;SDS011;62099;52.170;5.386;2022-08-19T05:59:49;50.60;;;25.65;;
70812;SDS011;62099;52.170;5.386;2022-08-19T06:02:23;55.03;;;26.48;;
70812;SDS011;62099;52.170;5.386;2022-08-19T06:04:51;58.53;;;26.10;;
70812;SDS011;62099;52.170;5.386;2022-08-19T06:07:17;57.17;;;27.20;;
70812;SDS011;62099;52.170;5.386;2022-08-19T06:09:45;55.33;;;25.95;;
70812;SDS011;62099;52.170;5.386;2022-08-19T06:12:26;54.00;;;26.15;;
70812;SDS011;62099;52.170;5.386;2022-08-19T06:15:01;62.78;;;27.45;;
70812;SDS011;62099;52.170;5.386;2022-08-19T06:17:30;56.42;;;27.45;;
70812;SDS011;62099;52.170;5.386;2022-08-19T06:19:58;58.05;;;27.25;;
70812;SDS011;62099;52.170;5.386;2022-08-19T06:22:25;54.70;;;27.52;;
70812;SDS011;62099;52.170;5.386;2022-08-19T06:24:52;60.05;;;28.23;;
70812;SDS011;62099;52.170;5.386;2022-08-19T06:27:20;51.72;;;27.05;;
70812;SDS011;62099;52.170;5.386;2022-08-19T06:29:48;56.50;;;27.08;;
70812;SDS011;62099;52.170;5.386;2022-08-19T06:32:15;55.03;;;26.27;;
70812;SDS011;62099;52.170;5.386;2022-08-19T06:34:44;60.60;;;28.73;;
70812;SDS011;62099;52.170;5.386;2022-08-19T06:37:11;52.03;;;26.40;;
70812;SDS011;62099;52.170;5.386;2022-08-19T06:39:39;55.25;;;26.67;;
70812;SDS011;62099;52.170;5.386;2022-08-19T06:42:10;55.35;;;26.35;;
70812;SDS011;62099;52.170;5.386;2022-08-19T06:44:40;51.40;;;26.83;;
70812;SDS011;62099;52.170;5.386;2022-08-19T06:47:15;60.20;;;27.42;;
70812;SDS011;62099;52.170;5.386;2022-08-19T06:49:54;52.25;;;27.00;;
70812;SDS011;62099;52.170;5.386;2022-08-19T06:52:32;54.90;;;26.98;;
70812;SDS011;62099;52.170;5.386;2022-08-19T06:55:02;70.18;;;28.88;;
70812;SDS011;62099;52.170;5.386;2022-08-19T06:57:31;65.68;;;28.15;;
70812;SDS011;62099;52.170;5.386;2022-08-19T06:59:58;62.00;;;28.45;;
70812;SDS011;62099;52.170;5.386;2022-08-19T07:02:26;58.70;;;27.52;;
70812;SDS011;62099;52.170;5.386;2022-08-19T07:04:53;61.10;;;29.52;;
70812;SDS011;62099;52.170;5.386;2022-08-19T07:07:20;64.75;;;30.55;;
70812;SDS011;62099;52.170;5.386;2022-08-19T07:09:47;63.38;;;29.70;;
70812;SDS011;62099;52.170;5.386;2022-08-19T07:12:29;65.95;;;30.33;;
70812;SDS011;62099;52.170;5.386;2022-08-19T07:15:01;62.53;;;29.38;;
70812;SDS011;62099;52.170;5.386;2022-08-19T07:17:29;57.92;;;30.05;;
70812;SDS011;62099;52.170;5.386;2022-08-19T07:19:59;61.40;;;30.83;;
70812;SDS011;62099;52.170;5.386;2022-08-19T07:22:34;66.65;;;32.35;;
70812;SDS011;62099;52.170;5.386;2022-08-19T07:25:02;67.00;;;30.75;;
70812;SDS011;62099;52.170;5.386;2022-08-19T07:27:29;65.13;;;32.45;;
70812;SDS011;62099;52.170;5.386;2022-08-19T07:29:59;68.43;;;31.40;;
70812;SDS011;62099;52.170;5.386;2022-08-19T07:32:26;58.17;;;31.15;;
70812;SDS011;62099;52.170;5.386;2022-08-19T07:34:53;61.20;;;31.38;;
70812;SDS011;62099;52.170;5.386;2022-08-19T07:37:21;59.45;;;30.85;;
70812;SDS011;62099;52.170;5.386;2022-08-19T07:39:49;55.70;;;29.40;;
70812;SDS011;62099;52.170;5.386;2022-08-19T07:42:16;61.97;;;30.80;;
70812;SDS011;62099;52.170;5.386;2022-08-19T07:44:43;55.70;;;29.75;;
70812;SDS011;62099;52.170;5.386;2022-08-19T07:47:16;57.70;;;30.13;;
70812;SDS011;62099;52.170;5.386;2022-08-19T07:50:05;50.95;;;27.58;;
70812;SDS011;62099;52.170;5.386;2022-08-19T07:52:34;52.30;;;28.35;;
70812;SDS011;62099;52.170;5.386;2022-08-19T07:55:03;50.78;;;27.35;;
70812;SDS011;62099;52.170;5.386;2022-08-19T07:57:51;56.42;;;27.10;;
70812;SDS011;62099;52.170;5.386;2022-08-19T08:00:19;52.45;;;27.55;;
70812;SDS011;62099;52.170;5.386;2022-08-19T08:02:49;53.95;;;26.80;;
70812;SDS011;62099;52.170;5.386;2022-08-19T08:05:20;48.25;;;26.67;;
70812;SDS011;62099;52.170;5.386;2022-08-19T08:08:09;44.47;;;26.63;;
70812;SDS011;62099;52.170;5.386;2022-08-19T08:10:52;51.05;;;26.90;;
70812;SDS011;62099;52.170;5.386;2022-08-19T08:13:22;54.95;;;27.27;;
70812;SDS011;62099;52.170;5.386;2022-08-19T08:15:50;50.85;;;28.83;;
70812;SDS011;62099;52.170;5.386;2022-08-19T08:18:20;50.45;;;26.60;;
70812;SDS011;62099;52.170;5.386;2022-08-19T08:20:52;52.65;;;27.80;;
70812;SDS011;62099;52.170;5.386;2022-08-19T08:23:20;48.90;;;26.27;;
70812;SDS011;62099;52.170;5.386;2022-08-19T08:25:53;41.22;;;22.92;;
70812;SDS011;62099;52.170;5.386;2022-08-19T08:28:23;42.60;;;23.92;;
70812;SDS011;62099;52.170;5.386;2022-08-19T08:30:55;40.40;;;24.63;;
70812;SDS011;62099;52.170;5.386;2022-08-19T08:33:24;43.15;;;23.73;;
70812;SDS011;62099;52.170;5.386;2022-08-19T08:36:06;45.85;;;23.88;;
70812;SDS011;62099;52.170;5.386;2022-08-19T08:38:37;45.70;;;23.67;;
70812;SDS011;62099;52.170;5.386;2022-08-19T08:43:49;41.53;;;22.17;;
70812;SDS011;62099;52.170;5.386;2022-08-19T08:46:20;41.65;;;23.13;;
70812;SDS011;62099;52.170;5.386;2022-08-19T08:51:43;38.75;;;21.77;;
70812;SDS011;62099;52.170;5.386;2022-08-19T08:54:24;41.70;;;22.50;;
70812;SDS011;62099;52.170;5.386;2022-08-19T08:57:00;39.85;;;21.75;;
70812;SDS011;62099;52.170;5.386;2022-08-19T08:59:33;40.13;;;22.02;;
70812;SDS011;62099;52.170;5.386;2022-08-19T09:02:02;43.45;;;22.73;;
70812;SDS011;62099;52.170;5.386;2022-08-19T09:04:29;43.45;;;22.42;;
70812;SDS011;62099;52.170;5.386;2022-08-19T09:07:09;36.63;;;21.77;;
70812;SDS011;62099;52.170;5.386;2022-08-19T09:10:21;37.25;;;21.48;;
70812;SDS011;62099;52.170;5.386;2022-08-19T09:15:48;38.35;;;23.23;;
70812;SDS011;62099;52.170;5.386;2022-08-19T09:18:21;33.72;;;21.30;;
70812;SDS011;62099;52.170;5.386;2022-08-19T09:20:47;36.03;;;20.92;;
70812;SDS011;62099;52.170;5.386;2022-08-19T09:23:15;35.45;;;21.67;;
70812;SDS011;62099;52.170;5.386;2022-08-19T09:25:42;36.40;;;21.67;;
70812;SDS011;62099;52.170;5.386;2022-08-19T09:28:08;38.13;;;22.15;;
70812;SDS011;62099;52.170;5.386;2022-08-19T09:30:48;36.05;;;21.33;;
70812;SDS011;62099;52.170;5.386;2022-08-19T09:33:15;35.30;;;21.42;;
70812;SDS011;62099;52.170;5.386;2022-08-19T09:35:42;33.13;;;20.77;;
70812;SDS011;62099;52.170;5.386;2022-08-19T09:38:18;33.92;;;19.35;;
70812;SDS011;62099;52.170;5.386;2022-08-19T09:40:44;28.98;;;18.70;;
70812;SDS011;62099;52.170;5.386;2022-08-19T09:43:11;29.08;;;18.63;;
70812;SDS011;62099;52.170;5.386;2022-08-19T09:45:38;37.47;;;20.48;;
70812;SDS011;62099;52.170;5.386;2022-08-19T09:48:05;30.02;;;18.30;;
70812;SDS011;62099;52.170;5.386;2022-08-19T09:50:32;27.02;;;17.27;;
70812;SDS011;62099;52.170;5.386;2022-08-19T09:53:01;27.65;;;16.70;;
70812;SDS011;62099;52.170;5.386;2022-08-19T09:55:27;25.27;;;15.82;;
70812;SDS011;62099;52.170;5.386;2022-08-19T09:57:58;23.70;;;15.43;;
70812;SDS011;62099;52.170;5.386;2022-08-19T10:00:25;25.80;;;14.25;;
70812;SDS011;62099;52.170;5.386;2022-08-19T10:02:52;25.40;;;14.18;;
70812;SDS011;62099;52.170;5.386;2022-08-19T10:05:19;25.67;;;15.95;;
70812;SDS011;62099;52.170;5.386;2022-08-19T10:08:08;24.27;;;14.85;;
70812;SDS011;62099;52.170;5.386;2022-08-19T10:10:40;24.90;;;15.40;;
70812;SDS011;62099;52.170;5.386;2022-08-19T10:13:12;26.25;;;16.55;;
70812;SDS011;62099;52.170;5.386;2022-08-19T10:15:41;24.52;;;15.90;;
70812;SDS011;62099;52.170;5.386;2022-08-19T10:18:13;24.25;;;14.73;;
70812;SDS011;62099;52.170;5.386;2022-08-19T10:20:39;23.92;;;16.20;;
70812;SDS011;62099;52.170;5.386;2022-08-19T10:23:08;26.27;;;16.15;;
70812;SDS011;62099;52.170;5.386;2022-08-19T10:25:35;24.38;;;15.27;;
70812;SDS011;62099;52.170;5.386;2022-08-19T10:28:04;23.77;;;15.52;;
70812;SDS011;62099;52.170;5.386;2022-08-19T10:30:36;25.08;;;15.90;;
70812;SDS011;62099;52.170;5.386;2022-08-19T10:33:03;24.83;;;15.82;;
70812;SDS011;62099;52.170;5.386;2022-08-19T10:35:36;23.58;;;16.50;;
70812;SDS011;62099;52.170;5.386;2022-08-19T10:38:22;25.42;;;16.75;;
70812;SDS011;62099;52.170;5.386;2022-08-19T10:40:58;24.60;;;16.83;;
70812;SDS011;62099;52.170;5.386;2022-08-19T10:43:33;24.85;;;16.98;;
70812;SDS011;62099;52.170;5.386;2022-08-19T10:46:04;25.05;;;17.60;;
70812;SDS011;62099;52.170;5.386;2022-08-19T10:48:39;30.33;;;18.58;;
70812;SDS011;62099;52.170;5.386;2022-08-19T10:51:07;23.77;;;15.52;;
70812;SDS011;62099;52.170;5.386;2022-08-19T10:53:52;25.30;;;16.83;;
70812;SDS011;62099;52.170;5.386;2022-08-19T10:56:19;26.00;;;16.83;;
70812;SDS011;62099;52.170;5.386;2022-08-19T10:59:27;25.88;;;17.33;;
70812;SDS011;62099;52.170;5.386;2022-08-19T11:02:01;27.25;;;17.58;;
70812;SDS011;62099;52.170;5.386;2022-08-19T11:04:29;25.52;;;18.50;;
70812;SDS011;62099;52.170;5.386;2022-08-19T11:06:55;27.83;;;18.02;;
70812;SDS011;62099;52.170;5.386;2022-08-19T11:09:23;27.73;;;18.73;;
70812;SDS011;62099;52.170;5.386;2022-08-19T11:14:41;30.25;;;17.77;;
70812;SDS011;62099;52.170;5.386;2022-08-19T11:17:08;24.17;;;17.20;;
70812;SDS011;62099;52.170;5.386;2022-08-19T11:19:34;25.55;;;16.98;;
70812;SDS011;62099;52.170;5.386;2022-08-19T11:22:01;26.35;;;17.88;;
70812;SDS011;62099;52.170;5.386;2022-08-19T11:24:29;24.58;;;16.88;;
70812;SDS011;62099;52.170;5.386;2022-08-19T11:27:00;24.83;;;17.77;;
70812;SDS011;62099;52.170;5.386;2022-08-19T11:29:38;24.42;;;16.52;;
70812;SDS011;62099;52.170;5.386;2022-08-19T11:32:06;28.92;;;18.63;;
70812;SDS011;62099;52.170;5.386;2022-08-19T11:34:35;25.58;;;16.58;;
70812;SDS011;62099;52.170;5.386;2022-08-19T11:37:02;26.83;;;16.38;;
70812;SDS011;62099;52.170;5.386;2022-08-19T11:39:30;25.75;;;16.90;;
70812;SDS011;62099;52.170;5.386;2022-08-19T11:41:58;25.48;;;16.27;;
70812;SDS011;62099;52.170;5.386;2022-08-19T11:44:26;27.27;;;18.50;;
70812;SDS011;62099;52.170;5.386;2022-08-19T11:46:56;28.70;;;18.38;;
70812;SDS011;62099;52.170;5.386;2022-08-19T11:49:34;30.90;;;17.85;;
70812;SDS011;62099;52.170;5.386;2022-08-19T11:52:02;29.00;;;18.48;;
70812;SDS011;62099;52.170;5.386;2022-08-19T11:54:29;30.35;;;19.90;;
70812;SDS011;62099;52.170;5.386;2022-08-19T11:56:56;28.65;;;18.60;;
70812;SDS011;62099;52.170;5.386;2022-08-19T11:59:23;27.85;;;18.17;;
70812;SDS011;62099;52.170;5.386;2022-08-19T12:01:50;26.20;;;17.70;;
70812;SDS011;62099;52.170;5.386;2022-08-19T12:04:17;28.58;;;18.52;;
70812;SDS011;62099;52.170;5.386;2022-08-19T12:06:45;28.02;;;16.85;;
70812;SDS011;62099;52.170;5.386;2022-08-19T12:09:12;25.35;;;16.33;;
70812;SDS011;62099;52.170;5.386;2022-08-19T12:11:40;26.13;;;16.33;;
70812;SDS011;62099;52.170;5.386;2022-08-19T12:14:08;24.13;;;15.02;;
70812;SDS011;62099;52.170;5.386;2022-08-19T12:16:40;28.08;;;15.45;;
70812;SDS011;62099;52.170;5.386;2022-08-19T12:19:16;26.02;;;15.50;;
70812;SDS011;62099;52.170;5.386;2022-08-19T12:21:48;22.98;;;16.20;;
70812;SDS011;62099;52.170;5.386;2022-08-19T12:24:15;34.92;;;19.20;;
70812;SDS011;62099;52.170;5.386;2022-08-19T12:26:46;30.50;;;20.08;;
70812;SDS011;62099;52.170;5.386;2022-08-19T12:29:19;31.05;;;20.50;;
70812;SDS011;62099;52.170;5.386;2022-08-19T12:31:49;23.73;;;14.90;;
70812;SDS011;62099;52.170;5.386;2022-08-19T12:34:16;19.67;;;13.52;;
70812;SDS011;62099;52.170;5.386;2022-08-19T12:36:45;22.13;;;14.45;;
70812;SDS011;62099;52.170;5.386;2022-08-19T12:39:11;26.42;;;16.30;;
70812;SDS011;62099;52.170;5.386;2022-08-19T12:41:39;26.80;;;15.90;;
70812;SDS011;62099;52.170;5.386;2022-08-19T12:44:19;21.17;;;15.93;;
70812;SDS011;62099;52.170;5.386;2022-08-19T12:46:54;26.02;;;16.45;;
70812;SDS011;62099;52.170;5.386;2022-08-19T12:49:20;22.65;;;13.95;;
70812;SDS011;62099;52.170;5.386;2022-08-19T12:52:08;21.13;;;14.70;;
70812;SDS011;62099;52.170;5.386;2022-08-19T12:54:35;19.73;;;15.07;;
70812;SDS011;62099;52.170;5.386;2022-08-19T12:57:06;19.58;;;13.65;;
70812;SDS011;62099;52.170;5.386;2022-08-19T12:59:34;19.67;;;14.07;;
70812;SDS011;62099;52.170;5.386;2022-08-19T13:02:06;19.38;;;14.93;;
70812;SDS011;62099;52.170;5.386;2022-08-19T13:04:34;20.70;;;15.50;;
70812;SDS011;62099;52.170;5.386;2022-08-19T13:07:02;24.02;;;16.90;;
70812;SDS011;62099;52.170;5.386;2022-08-19T13:09:29;21.00;;;16.35;;
70812;SDS011;62099;52.170;5.386;2022-08-19T13:11:56;24.08;;;17.40;;
70812;SDS011;62099;52.170;5.386;2022-08-19T13:14:23;23.42;;;18.27;;
70812;SDS011;62099;52.170;5.386;2022-08-19T13:16:52;24.85;;;19.05;;
70812;SDS011;62099;52.170;5.386;2022-08-19T13:19:18;25.30;;;18.25;;
70812;SDS011;62099;52.170;5.386;2022-08-19T13:21:49;23.73;;;17.83;;
70812;SDS011;62099;52.170;5.386;2022-08-19T13:24:25;24.15;;;18.00;;
70812;SDS011;62099;52.170;5.386;2022-08-19T13:27:02;25.70;;;18.02;;
70812;SDS011;62099;52.170;5.386;2022-08-19T13:29:29;26.42;;;19.00;;
70812;SDS011;62099;52.170;5.386;2022-08-19T13:35:01;23.98;;;17.77;;
70812;SDS011;62099;52.170;5.386;2022-08-19T13:37:28;23.55;;;17.13;;
70812;SDS011;62099;52.170;5.386;2022-08-19T13:40:11;22.55;;;17.08;;
70812;SDS011;62099;52.170;5.386;2022-08-19T13:42:43;23.08;;;17.77;;
70812;SDS011;62099;52.170;5.386;2022-08-19T13:45:12;27.65;;;18.67;;
70812;SDS011;62099;52.170;5.386;2022-08-19T13:47:41;26.45;;;17.33;;
70812;SDS011;62099;52.170;5.386;2022-08-19T13:50:12;21.70;;;14.57;;
70812;SDS011;62099;52.170;5.386;2022-08-19T13:52:40;24.88;;;16.35;;
70812;SDS011;62099;52.170;5.386;2022-08-19T13:55:08;24.50;;;14.77;;
70812;SDS011;62099;52.170;5.386;2022-08-19T13:57:36;21.08;;;13.25;;
70812;SDS011;62099;52.170;5.386;2022-08-19T14:00:08;19.70;;;13.38;;
70812;SDS011;62099;52.170;5.386;2022-08-19T14:02:37;24.92;;;13.80;;
70812;SDS011;62099;52.170;5.386;2022-08-19T14:05:06;20.35;;;13.60;;
70812;SDS011;62099;52.170;5.386;2022-08-19T14:07:35;18.42;;;12.10;;
70812;SDS011;62099;52.170;5.386;2022-08-19T14:10:03;17.08;;;12.48;;
70812;SDS011;62099;52.170;5.386;2022-08-19T14:12:32;17.30;;;11.50;;
70812;SDS011;62099;52.170;5.386;2022-08-19T14:14:59;17.85;;;11.50;;
70812;SDS011;62099;52.170;5.386;2022-08-19T14:17:26;18.55;;;10.93;;
70812;SDS011;62099;52.170;5.386;2022-08-19T14:20:00;16.30;;;11.55;;
70812;SDS011;62099;52.170;5.386;2022-08-19T14:22:37;14.73;;;10.77;;
70812;SDS011;62099;52.170;5.386;2022-08-19T14:25:07;18.10;;;10.95;;
70812;SDS011;62099;52.170;5.386;2022-08-19T14:27:36;14.65;;;10.30;;
70812;SDS011;62099;52.170;5.386;2022-08-19T14:30:04;13.30;;;8.90;;
70812;SDS011;62099;52.170;5.386;2022-08-19T14:32:33;12.57;;;8.23;;
70812;SDS011;62099;52.170;5.386;2022-08-19T14:35:03;12.77;;;8.07;;
70812;SDS011;62099;52.170;5.386;2022-08-19T14:37:32;11.98;;;7.60;;
70812;SDS011;62099;52.170;5.386;2022-08-19T14:40:10;11.93;;;7.28;;
70812;SDS011;62099;52.170;5.386;2022-08-19T14:42:39;12.50;;;6.90;;
70812;SDS011;62099;52.170;5.386;2022-08-19T14:45:06;13.23;;;6.80;;
70812;SDS011;62099;52.170;5.386;2022-08-19T14:47:33;11.93;;;6.38;;
70812;SDS011;62099;52.170;5.386;2022-08-19T14:50:00;14.23;;;6.95;;
70812;SDS011;62099;52.170;5.386;2022-08-19T14:52:30;12.32;;;6.45;;
70812;SDS011;62099;52.170;5.386;2022-08-19T14:54:57;12.05;;;6.57;;
70812;SDS011;62099;52.170;5.386;2022-08-19T14:57:23;11.35;;;6.32;;
70812;SDS011;62099;52.170;5.386;2022-08-19T14:59:50;11.60;;;6.85;;
70812;SDS011;62099;52.170;5.386;2022-08-19T15:02:17;11.45;;;6.65;;
70812;SDS011;62099;52.170;5.386;2022-08-19T15:05:00;12.00;;;6.38;;
70812;SDS011;62099;52.170;5.386;2022-08-19T15:07:27;12.68;;;6.32;;
70812;SDS011;62099;52.170;5.386;2022-08-19T15:09:55;9.40;;;5.57;;
70812;SDS011;62099;52.170;5.386;2022-08-19T15:12:22;10.23;;;5.90;;
70812;SDS011;62099;52.170;5.386;2022-08-19T15:14:50;11.05;;;5.03;;